Sandy Hook, Connecticut
Current Conditions -  °F | °C
As of 6:50 PM on Monday 20 Oct 2014 (Local Time) from KOXC Reporting Station
Scattered Clouds Scattered Clouds  
Wind Chill: 48°   Ceiling: Unl
Heat Index: 48°   Visibility: 10mi
Dew Point: 34°   Wind: 3mph
Humidity: 57%   Direction: 200°SSW
Pressure: 29.98"   Gusts: NA
Location:  41.42°N, 73.28°W
Report Text: KOXC 202250Z 20003KT 10SM FEW150 SCT250 09/01 A2998
Loading
Personal Weather Stations






























Interactive Weather Map New forecast layout! Learn more

10-Day Weather Forecast

Advertisements
Track Severe Weather on mobile